createdAt,value
2023-05-09T00:01:17.972Z,8.20
2023-05-09T00:03:45.860Z,8.20
2023-05-09T00:06:15.386Z,8.20
2023-05-09T00:08:44.793Z,8.10
2023-05-09T00:11:12.764Z,8.10
2023-05-09T00:13:41.914Z,8.00
2023-05-09T00:16:10.568Z,8.00
2023-05-09T00:18:42.324Z,8.10
2023-05-09T00:21:11.089Z,8.10
2023-05-09T00:23:41.670Z,8.10
2023-05-09T00:26:11.381Z,8.00
2023-05-09T00:28:42.539Z,7.90
2023-05-09T00:31:10.375Z,7.80
2023-05-09T00:33:38.331Z,7.70
2023-05-09T00:36:07.204Z,7.70
2023-05-09T00:38:35.127Z,7.80
2023-05-09T00:41:03.335Z,7.70
2023-05-09T00:43:32.568Z,7.70
2023-05-09T00:46:00.549Z,7.70
2023-05-09T00:48:28.500Z,7.70
2023-05-09T00:50:56.382Z,7.70
2023-05-09T00:53:26.224Z,7.60
2023-05-09T00:55:55.944Z,7.70
2023-05-09T00:58:23.869Z,7.70
2023-05-09T01:00:53.093Z,7.60
2023-05-09T01:03:21.043Z,7.60
2023-05-09T01:05:56.849Z,7.50
2023-05-09T01:08:31.565Z,7.50
2023-05-09T01:11:05.006Z,7.40
2023-05-09T01:13:39.335Z,7.40
2023-05-09T01:16:16.288Z,7.40
2023-05-09T01:18:50.904Z,7.40
2023-05-09T01:21:25.739Z,7.40
2023-05-09T01:24:14.388Z,7.30
2023-05-09T01:26:48.080Z,7.30
2023-05-09T01:29:39.823Z,7.30
2023-05-09T01:32:11.438Z,7.20
2023-05-09T01:34:41.629Z,7.10
2023-05-09T01:37:10.822Z,7.20
2023-05-09T01:39:41.852Z,7.20
2023-05-09T01:42:12.115Z,7.10
2023-05-09T01:44:43.460Z,7.10
2023-05-09T01:47:12.863Z,7.10
2023-05-09T01:49:43.094Z,7.10
2023-05-09T01:52:14.535Z,7.10
2023-05-09T01:54:43.997Z,7.10
2023-05-09T01:57:13.163Z,7.00
2023-05-09T01:59:46.199Z,7.00
2023-05-09T02:02:14.733Z,7.00
2023-05-09T02:04:44.174Z,7.00
2023-05-09T02:07:13.423Z,7.00
2023-05-09T02:09:41.388Z,7.00
2023-05-09T02:12:09.259Z,7.00
2023-05-09T02:14:37.220Z,7.00
2023-05-09T02:17:09.531Z,7.00
2023-05-09T02:19:37.723Z,7.00
2023-05-09T02:22:05.964Z,7.00
2023-05-09T02:24:35.053Z,7.00
2023-05-09T02:27:04.524Z,7.00
2023-05-09T02:29:39.851Z,6.90
2023-05-09T02:32:12.311Z,6.90
2023-05-09T02:34:42.033Z,6.80
2023-05-09T02:37:11.459Z,6.70
2023-05-09T02:39:39.662Z,6.70
2023-05-09T02:42:09.911Z,6.80
2023-05-09T02:44:38.797Z,6.70
2023-05-09T02:47:09.093Z,6.70
2023-05-09T02:49:37.041Z,6.70
2023-05-09T02:52:06.327Z,6.70
2023-05-09T02:54:34.229Z,6.70
2023-05-09T02:57:02.100Z,6.70
2023-05-09T02:59:30.103Z,6.60
2023-05-09T03:02:01.695Z,6.60
2023-05-09T03:04:31.916Z,6.50
2023-05-09T03:07:00.661Z,6.50
2023-05-09T03:09:32.877Z,6.50
2023-05-09T03:12:01.795Z,6.60
2023-05-09T03:14:32.219Z,6.60
2023-05-09T03:17:00.849Z,6.50
2023-05-09T03:19:36.245Z,6.50
2023-05-09T03:22:04.694Z,6.50
2023-05-09T03:24:39.879Z,6.50
2023-05-09T03:27:08.038Z,6.40
2023-05-09T03:29:35.983Z,6.40
2023-05-09T03:32:05.184Z,6.30
2023-05-09T03:34:33.331Z,6.30
2023-05-09T03:37:03.616Z,6.30
2023-05-09T03:39:32.683Z,6.30
2023-05-09T03:42:00.787Z,6.30
2023-05-09T03:44:28.842Z,6.20
2023-05-09T03:46:56.782Z,6.10
2023-05-09T03:49:26.318Z,6.20
2023-05-09T03:51:55.604Z,6.30
2023-05-09T03:54:25.156Z,6.60
2023-05-09T03:56:53.938Z,7.00
2023-05-09T03:59:22.014Z,7.50
2023-05-09T04:01:50.183Z,8.10
2023-05-09T04:04:19.609Z,8.70
2023-05-09T04:06:48.362Z,9.30
2023-05-09T04:09:18.790Z,9.80
2023-05-09T04:11:49.906Z,10.40
2023-05-09T04:14:19.012Z,10.70
2023-05-09T04:16:48.012Z,11.00
2023-05-09T04:19:16.635Z,11.30
2023-05-09T04:21:45.093Z,12.00
2023-05-09T04:24:12.995Z,12.40
2023-05-09T04:26:44.142Z,12.90
2023-05-09T04:29:17.489Z,12.80
2023-05-09T04:31:51.169Z,13.40
2023-05-09T04:34:19.847Z,13.50
2023-05-09T04:36:48.068Z,13.60
2023-05-09T04:39:16.345Z,13.90
2023-05-09T04:41:55.535Z,14.10
2023-05-09T04:44:25.339Z,14.90
2023-05-09T04:46:55.087Z,15.00
2023-05-09T04:49:23.448Z,15.50
2023-05-09T04:51:52.294Z,15.40
2023-05-09T04:54:20.147Z,16.00
2023-05-09T04:56:50.573Z,16.30
2023-05-09T04:59:19.194Z,16.50
2023-05-09T05:01:49.222Z,16.60
2023-05-09T05:04:17.526Z,17.40
2023-05-09T05:06:45.423Z,18.00
2023-05-09T05:09:13.793Z,18.10
2023-05-09T05:11:47.743Z,18.60
2023-05-09T05:14:26.094Z,18.60
2023-05-09T05:16:55.620Z,18.90
2023-05-09T05:19:24.797Z,18.40
2023-05-09T05:21:52.961Z,18.60
2023-05-09T05:24:21.107Z,19.00
2023-05-09T05:26:49.097Z,18.90
2023-05-09T05:29:17.667Z,19.60
2023-05-09T05:31:46.342Z,19.70
2023-05-09T05:34:16.702Z,20.50
2023-05-09T05:36:47.935Z,20.70
2023-05-09T05:39:16.311Z,20.80
2023-05-09T05:41:44.700Z,21.80
2023-05-09T05:44:12.788Z,22.70
2023-05-09T05:46:40.966Z,22.80
2023-05-09T05:49:08.999Z,22.90
2023-05-09T05:51:38.515Z,23.50
2023-05-09T05:54:07.744Z,23.20
2023-05-09T05:56:36.823Z,23.80
2023-05-09T05:59:05.310Z,24.00
2023-05-09T06:01:33.957Z,24.20
2023-05-09T06:04:02.133Z,24.80
2023-05-09T06:06:32.694Z,25.30
2023-05-09T06:09:02.218Z,26.10
2023-05-09T06:11:30.166Z,26.00
2023-05-09T06:13:58.021Z,27.10
2023-05-09T06:16:26.087Z,26.90
2023-05-09T06:18:55.962Z,27.00
2023-05-09T06:21:23.922Z,26.80
2023-05-09T06:24:07.934Z,26.90
2023-05-09T06:26:39.699Z,27.20
2023-05-09T06:29:07.994Z,26.80
2023-05-09T06:31:38.838Z,27.70
2023-05-09T06:34:07.152Z,27.80
2023-05-09T06:36:35.308Z,27.30
2023-05-09T06:39:03.192Z,26.80
2023-05-09T06:41:31.029Z,26.50
2023-05-09T06:44:02.550Z,26.70
2023-05-09T06:46:30.488Z,26.50
2023-05-09T06:48:58.709Z,26.90
2023-05-09T06:51:27.146Z,27.30
2023-05-09T06:53:55.031Z,27.50
2023-05-09T06:56:23.452Z,27.50
2023-05-09T06:58:51.484Z,27.50
2023-05-09T07:01:20.732Z,27.80
2023-05-09T07:03:48.630Z,27.50
2023-05-09T07:06:16.574Z,27.60
2023-05-09T07:08:44.661Z,27.60
2023-05-09T07:11:12.680Z,27.50
2023-05-09T07:13:40.836Z,27.50
2023-05-09T07:16:08.856Z,26.90
2023-05-09T07:18:38.139Z,27.50
2023-05-09T07:21:06.354Z,27.50
2023-05-09T07:23:34.248Z,27.70
2023-05-09T07:26:02.443Z,28.10
2023-05-09T07:28:30.286Z,28.20
2023-05-09T07:30:58.159Z,28.20
2023-05-09T07:33:26.399Z,27.90
2023-05-09T07:35:55.713Z,27.90
2023-05-09T07:38:23.840Z,28.20
2023-05-09T07:40:53.281Z,28.90
2023-05-09T07:43:21.393Z,29.10
2023-05-09T07:45:49.301Z,29.40
2023-05-09T07:48:17.285Z,29.60
2023-05-09T07:50:45.205Z,29.60
2023-05-09T07:53:14.502Z,29.20
2023-05-09T07:55:42.773Z,29.30
2023-05-09T07:58:10.652Z,29.90
2023-05-09T08:00:38.852Z,29.00
2023-05-09T08:03:09.172Z,29.10
2023-05-09T08:05:37.139Z,29.90
2023-05-09T08:08:05.357Z,29.70
2023-05-09T08:10:34.686Z,30.50
2023-05-09T08:13:02.744Z,30.20
2023-05-09T08:15:31.328Z,29.30
2023-05-09T08:17:59.233Z,29.60
2023-05-09T08:20:27.128Z,29.60
2023-05-09T08:22:55.002Z,30.60
2023-05-09T08:25:22.904Z,31.50
2023-05-09T08:27:53.052Z,31.00
2023-05-09T08:30:21.406Z,32.10
2023-05-09T08:32:49.589Z,31.60
2023-05-09T08:35:17.977Z,32.80
2023-05-09T08:37:47.836Z,33.20
2023-05-09T08:40:16.813Z,32.50
2023-05-09T08:42:46.786Z,31.30
2023-05-09T08:45:18.677Z,31.60
2023-05-09T08:47:47.453Z,30.60
2023-05-09T08:50:17.492Z,29.00
2023-05-09T08:52:46.070Z,29.80
2023-05-09T08:55:15.342Z,30.10
2023-05-09T08:57:43.493Z,30.10
2023-05-09T09:00:14.180Z,30.00
2023-05-09T09:02:44.701Z,30.10
2023-05-09T09:05:23.767Z,29.90
2023-05-09T09:07:57.787Z,29.70
2023-05-09T09:10:27.824Z,29.20
2023-05-09T09:12:57.581Z,30.20
2023-05-09T09:15:29.553Z,31.20
2023-05-09T09:18:07.334Z,30.80
2023-05-09T09:20:36.749Z,30.10
2023-05-09T09:23:10.516Z,29.70
2023-05-09T09:25:38.663Z,30.50
2023-05-09T09:28:07.047Z,30.30
2023-05-09T09:30:35.142Z,29.70
2023-05-09T09:33:07.968Z,29.70
2023-05-09T09:35:40.400Z,29.20
2023-05-09T09:38:08.518Z,28.90
2023-05-09T09:40:39.300Z,28.40
2023-05-09T09:43:08.123Z,28.00
2023-05-09T09:45:36.436Z,28.40
2023-05-09T09:48:08.116Z,29.00
2023-05-09T09:50:35.986Z,28.30
2023-05-09T09:53:04.185Z,28.50
2023-05-09T09:55:36.359Z,28.20
2023-05-09T09:58:04.377Z,28.30
2023-05-09T10:00:32.859Z,28.30
2023-05-09T10:03:01.424Z,28.80
2023-05-09T10:05:34.444Z,28.30
2023-05-09T10:08:07.870Z,28.60
2023-05-09T10:10:37.097Z,28.30
2023-05-09T10:13:06.721Z,27.30
2023-05-09T10:15:49.447Z,27.80
2023-05-09T10:18:30.033Z,28.10
2023-05-09T10:21:03.632Z,28.10
2023-05-09T10:23:32.700Z,27.80
2023-05-09T10:26:08.898Z,28.00
2023-05-09T10:28:40.000Z,27.40
2023-05-09T10:31:13.307Z,26.30
2023-05-09T10:33:47.091Z,24.40
2023-05-09T10:36:18.616Z,22.70
2023-05-09T10:38:47.805Z,21.50
2023-05-09T10:41:17.052Z,20.80
2023-05-09T10:43:45.970Z,20.40
2023-05-09T10:46:14.795Z,20.10
2023-05-09T10:48:43.228Z,20.10
2023-05-09T10:51:12.244Z,19.80
2023-05-09T10:53:46.520Z,19.60
2023-05-09T10:56:25.200Z,19.30
2023-05-09T10:58:56.720Z,19.10
2023-05-09T11:01:34.677Z,18.90
2023-05-09T11:04:12.063Z,18.90
2023-05-09T11:06:47.706Z,19.00
2023-05-09T11:09:41.856Z,18.90
2023-05-09T11:12:13.928Z,18.80
2023-05-09T11:14:44.688Z,18.80
2023-05-09T11:17:14.140Z,18.70
2023-05-09T11:20:09.974Z,18.80
2023-05-09T11:22:42.298Z,18.70
2023-05-09T11:25:13.205Z,18.70
2023-05-09T11:27:43.587Z,18.70
2023-05-09T11:30:15.623Z,18.60
2023-05-09T11:32:46.505Z,18.70
2023-05-09T11:35:16.971Z,18.50
2023-05-09T11:37:51.128Z,18.20
2023-05-09T11:40:21.978Z,18.00
2023-05-09T11:42:55.455Z,18.30
2023-05-09T11:45:27.184Z,18.50
2023-05-09T11:47:55.261Z,18.70
2023-05-09T11:50:23.650Z,18.70
2023-05-09T11:52:52.336Z,19.00
2023-05-09T11:55:23.267Z,18.70
2023-05-09T11:57:53.047Z,18.70
2023-05-09T12:00:23.301Z,18.70
2023-05-09T12:02:52.677Z,18.60
2023-05-09T12:05:23.224Z,18.50
2023-05-09T12:07:52.461Z,18.60
2023-05-09T12:10:23.938Z,18.60
2023-05-09T12:12:55.837Z,18.60
2023-05-09T12:15:23.912Z,18.50
2023-05-09T12:18:03.342Z,18.50
2023-05-09T12:20:42.098Z,18.40
2023-05-09T12:23:11.578Z,18.30
2023-05-09T12:25:41.185Z,18.50
2023-05-09T12:28:09.284Z,18.60
2023-05-09T12:30:37.300Z,18.60
2023-05-09T12:33:05.794Z,18.50
2023-05-09T12:35:35.535Z,18.50
2023-05-09T12:38:03.950Z,18.50
2023-05-09T12:40:32.040Z,18.40
2023-05-09T12:43:03.042Z,18.20
2023-05-09T12:45:33.734Z,18.30
2023-05-09T12:48:02.580Z,18.40
2023-05-09T12:50:35.846Z,18.20
2023-05-09T12:53:05.148Z,18.20
2023-05-09T12:55:39.813Z,18.10
2023-05-09T12:58:09.009Z,18.20
2023-05-09T13:00:44.268Z,18.10
2023-05-09T13:03:22.779Z,18.10
2023-05-09T13:05:58.120Z,18.00
2023-05-09T13:08:26.279Z,18.00
2023-05-09T13:11:03.972Z,18.00
2023-05-09T13:13:37.594Z,18.10
2023-05-09T13:16:08.173Z,18.00
2023-05-09T13:18:37.978Z,17.80
2023-05-09T13:21:05.920Z,17.90
2023-05-09T13:23:33.740Z,18.00
2023-05-09T13:26:01.649Z,18.00
2023-05-09T13:28:29.642Z,18.00
2023-05-09T13:30:59.249Z,17.80
2023-05-09T13:33:27.619Z,17.90
2023-05-09T13:35:55.805Z,17.90
2023-05-09T13:38:23.714Z,17.90
2023-05-09T13:40:51.584Z,17.80
2023-05-09T13:43:19.484Z,17.80
2023-05-09T13:45:47.595Z,17.80
2023-05-09T13:48:16.975Z,18.00
2023-05-09T13:50:44.851Z,17.90
2023-05-09T13:53:13.049Z,17.80
2023-05-09T13:55:40.861Z,17.80
2023-05-09T13:58:08.750Z,17.80
2023-05-09T14:00:37.102Z,17.90
2023-05-09T14:03:05.201Z,17.90
2023-05-09T14:05:34.704Z,18.00
2023-05-09T14:08:03.540Z,17.80
2023-05-09T14:10:31.349Z,17.70
2023-05-09T14:12:59.618Z,17.70
2023-05-09T14:15:27.501Z,17.80
2023-05-09T14:17:55.391Z,17.80
2023-05-09T14:20:23.317Z,17.90
2023-05-09T14:22:55.007Z,17.90
2023-05-09T14:25:23.520Z,17.90
2023-05-09T14:27:51.478Z,17.90
2023-05-09T14:30:19.331Z,17.90
2023-05-09T14:32:47.478Z,17.90
2023-05-09T14:35:15.457Z,17.90
2023-05-09T14:37:43.495Z,17.90
2023-05-09T14:40:13.805Z,18.00
2023-05-09T14:42:42.209Z,17.80
2023-05-09T14:45:12.632Z,17.70
2023-05-09T14:47:41.207Z,17.70
2023-05-09T14:50:11.355Z,17.70
2023-05-09T14:52:39.207Z,17.80
2023-05-09T14:55:07.472Z,17.80
2023-05-09T14:57:36.781Z,17.90
2023-05-09T15:00:16.573Z,17.90
2023-05-09T15:02:48.871Z,17.90
2023-05-09T15:05:16.905Z,18.00
2023-05-09T15:07:44.846Z,18.00
2023-05-09T15:10:13.237Z,18.10
2023-05-09T15:12:42.854Z,18.10
2023-05-09T15:15:15.602Z,18.00
2023-05-09T15:17:44.296Z,18.00
2023-05-09T15:20:15.159Z,18.00
2023-05-09T15:22:43.451Z,17.80
2023-05-09T15:25:12.155Z,17.80
2023-05-09T15:27:40.100Z,17.90
2023-05-09T15:30:10.963Z,17.80
2023-05-09T15:32:40.643Z,17.70
2023-05-09T15:35:09.520Z,17.60
2023-05-09T15:37:37.765Z,17.50
2023-05-09T15:40:07.517Z,17.50
2023-05-09T15:42:35.625Z,17.40
2023-05-09T15:45:03.981Z,17.40
2023-05-09T15:47:33.355Z,17.40
2023-05-09T15:50:01.382Z,17.40
2023-05-09T15:52:29.288Z,17.30
2023-05-09T15:54:57.221Z,17.40
2023-05-09T15:57:25.147Z,17.30
2023-05-09T15:59:54.479Z,17.40
2023-05-09T16:02:22.734Z,17.20
2023-05-09T16:04:52.159Z,17.20
2023-05-09T16:07:20.625Z,17.10
2023-05-09T16:09:49.111Z,17.20
2023-05-09T16:12:17.418Z,17.20
2023-05-09T16:14:45.466Z,17.30
2023-05-09T16:17:13.412Z,17.20
2023-05-09T16:19:41.262Z,17.10
2023-05-09T16:22:10.532Z,17.10
2023-05-09T16:24:38.500Z,17.10
2023-05-09T16:27:06.601Z,17.10
2023-05-09T16:29:34.558Z,17.00
2023-05-09T16:32:02.549Z,17.00
2023-05-09T16:34:30.506Z,17.00
2023-05-09T16:36:58.436Z,17.00
2023-05-09T16:39:28.344Z,17.00
2023-05-09T16:41:56.638Z,16.90
2023-05-09T16:44:25.662Z,16.70
2023-05-09T16:46:53.677Z,16.60
2023-05-09T16:49:21.593Z,16.60
2023-05-09T16:51:49.436Z,16.60
2023-05-09T16:54:17.326Z,16.60
2023-05-09T16:56:46.753Z,16.60
2023-05-09T16:59:15.068Z,16.50
2023-05-09T17:01:43.334Z,16.40
2023-05-09T17:04:11.343Z,16.30
2023-05-09T17:06:39.264Z,16.20
2023-05-09T17:09:07.616Z,16.20
2023-05-09T17:11:35.594Z,16.10
2023-05-09T17:14:04.986Z,16.10
2023-05-09T17:16:33.472Z,16.10
2023-05-09T17:19:02.646Z,16.00
2023-05-09T17:21:30.750Z,15.90
2023-05-09T17:23:58.600Z,15.90
2023-05-09T17:26:26.799Z,15.80
2023-05-09T17:28:54.686Z,15.80
2023-05-09T17:31:23.954Z,15.70
2023-05-09T17:33:51.793Z,15.60
2023-05-09T17:36:19.647Z,15.50
2023-05-09T17:38:47.810Z,15.50
2023-05-09T17:41:15.948Z,15.50
2023-05-09T17:43:43.846Z,15.40
2023-05-09T17:46:11.934Z,15.40
2023-05-09T17:48:41.173Z,15.30
2023-05-09T17:51:09.114Z,15.20
2023-05-09T17:53:37.129Z,15.10
2023-05-09T17:56:05.282Z,15.10
2023-05-09T17:58:33.250Z,15.00
2023-05-09T18:01:01.088Z,14.90
2023-05-09T18:03:29.561Z,14.80
2023-05-09T18:06:00.235Z,14.70
2023-05-09T18:08:29.488Z,14.70
2023-05-09T18:10:57.711Z,14.60
2023-05-09T18:13:25.781Z,14.50
2023-05-09T18:15:55.046Z,14.50
2023-05-09T18:18:23.074Z,14.40
2023-05-09T18:20:50.957Z,14.30
2023-05-09T18:23:20.212Z,14.30
2023-05-09T18:25:48.353Z,14.20
2023-05-09T18:28:17.751Z,14.20
2023-05-09T18:30:45.590Z,14.00
2023-05-09T18:33:13.407Z,13.90
2023-05-09T18:35:41.237Z,13.80
2023-05-09T18:38:09.141Z,13.60
2023-05-09T18:40:38.453Z,13.50
2023-05-09T18:43:06.375Z,13.40
2023-05-09T18:45:34.612Z,13.40
2023-05-09T18:48:02.657Z,13.30
2023-05-09T18:50:30.714Z,13.40
2023-05-09T18:52:58.744Z,13.40
2023-05-09T18:55:26.866Z,13.30
2023-05-09T18:57:56.058Z,13.20
2023-05-09T19:00:24.059Z,13.10
2023-05-09T19:02:52.246Z,13.00
2023-05-09T19:05:20.514Z,13.00
2023-05-09T19:07:48.663Z,13.00
2023-05-09T19:10:18.152Z,13.00
2023-05-09T19:12:46.739Z,13.00
2023-05-09T19:15:15.980Z,13.00
2023-05-09T19:17:44.024Z,13.00
2023-05-09T19:20:13.650Z,13.00
2023-05-09T19:22:46.250Z,13.00
2023-05-09T19:25:14.072Z,13.00
2023-05-09T19:27:41.917Z,12.90
2023-05-09T19:30:10.743Z,12.80
2023-05-09T19:32:40.031Z,12.70
2023-05-09T19:35:08.568Z,12.70
2023-05-09T19:37:37.672Z,12.60
2023-05-09T19:40:07.609Z,12.60
2023-05-09T19:42:36.492Z,12.60
2023-05-09T19:45:04.942Z,12.60
2023-05-09T19:47:32.850Z,12.60
2023-05-09T19:50:02.417Z,12.50
2023-05-09T19:52:31.697Z,12.50
2023-05-09T19:54:59.624Z,12.40
2023-05-09T19:57:27.508Z,12.50
2023-05-09T19:59:56.014Z,12.40
2023-05-09T20:02:23.903Z,12.50
2023-05-09T20:04:51.904Z,12.60
2023-05-09T20:07:21.435Z,12.60
2023-05-09T20:09:49.322Z,12.50
2023-05-09T20:12:17.373Z,12.60
2023-05-09T20:14:45.340Z,12.60
2023-05-09T20:17:13.224Z,12.60
2023-05-09T20:19:41.223Z,12.60
2023-05-09T20:22:09.053Z,12.60
2023-05-09T20:24:38.778Z,12.60
2023-05-09T20:27:06.836Z,12.60
2023-05-09T20:29:34.764Z,12.50
2023-05-09T20:32:02.895Z,12.40
2023-05-09T20:34:31.130Z,12.40
2023-05-09T20:36:58.991Z,12.40
2023-05-09T20:39:26.877Z,12.50
2023-05-09T20:41:58.773Z,12.50
2023-05-09T20:44:26.724Z,12.50
2023-05-09T20:46:54.718Z,12.50
2023-05-09T20:49:22.775Z,12.40
2023-05-09T20:51:50.751Z,12.40
2023-05-09T20:54:18.858Z,12.40
2023-05-09T20:56:46.739Z,12.40
2023-05-09T20:59:15.952Z,12.40
2023-05-09T21:01:44.270Z,12.30
2023-05-09T21:04:12.132Z,12.20
2023-05-09T21:06:39.967Z,12.30
2023-05-09T21:09:09.005Z,12.20
2023-05-09T21:11:38.379Z,12.20
2023-05-09T21:14:06.378Z,12.10
2023-05-09T21:16:35.662Z,12.10
2023-05-09T21:19:05.170Z,12.10
2023-05-09T21:21:33.799Z,12.00
2023-05-09T21:24:03.226Z,12.00
2023-05-09T21:26:31.403Z,12.10
2023-05-09T21:28:59.253Z,12.00
2023-05-09T21:31:27.148Z,12.00
2023-05-09T21:33:56.356Z,12.00
2023-05-09T21:36:24.254Z,11.90
2023-05-09T21:38:52.196Z,11.90
2023-05-09T21:41:21.941Z,11.90
2023-05-09T21:43:49.834Z,11.90
2023-05-09T21:46:17.708Z,11.80
2023-05-09T21:48:45.613Z,11.80
2023-05-09T21:51:15.195Z,11.80
2023-05-09T21:53:43.082Z,11.80
2023-05-09T21:56:11.187Z,11.80
2023-05-09T21:58:39.055Z,11.80
2023-05-09T22:01:06.991Z,11.80
2023-05-09T22:03:35.284Z,11.70
2023-05-09T22:06:03.183Z,11.70
2023-05-09T22:08:32.402Z,11.70
2023-05-09T22:11:00.309Z,11.60
2023-05-09T22:13:28.851Z,11.60
2023-05-09T22:15:57.029Z,11.60
2023-05-09T22:18:24.864Z,11.50
2023-05-09T22:20:52.977Z,11.50
2023-05-09T22:23:20.846Z,11.50
2023-05-09T22:25:50.273Z,11.50
2023-05-09T22:28:18.096Z,11.40
2023-05-09T22:30:45.979Z,11.40
2023-05-09T22:33:14.107Z,11.40
2023-05-09T22:35:42.026Z,11.30
2023-05-09T22:38:09.879Z,11.30
2023-05-09T22:40:38.049Z,11.20
2023-05-09T22:43:07.284Z,11.20
2023-05-09T22:45:35.208Z,11.20
2023-05-09T22:48:03.570Z,11.20
2023-05-09T22:50:31.595Z,11.10
2023-05-09T22:52:59.518Z,11.10
2023-05-09T22:55:27.476Z,11.10
2023-05-09T22:57:55.537Z,11.00
2023-05-09T23:00:24.904Z,11.00
2023-05-09T23:02:53.007Z,11.00
2023-05-09T23:05:21.932Z,10.90
2023-05-09T23:07:49.772Z,10.90
2023-05-09T23:10:18.195Z,10.80
2023-05-09T23:12:46.638Z,10.80
2023-05-09T23:15:14.578Z,10.80
2023-05-09T23:17:44.055Z,10.80
2023-05-09T23:20:12.961Z,10.80
2023-05-09T23:22:40.965Z,10.90
2023-05-09T23:25:10.235Z,10.80
2023-05-09T23:27:40.610Z,10.80
2023-05-09T23:30:10.350Z,10.70
2023-05-09T23:32:38.707Z,10.70
2023-05-09T23:35:08.613Z,10.70
2023-05-09T23:37:36.440Z,10.70
2023-05-09T23:40:04.703Z,10.70
2023-05-09T23:42:32.891Z,10.60
2023-05-09T23:45:00.827Z,10.60
2023-05-09T23:47:28.977Z,10.60
2023-05-09T23:49:56.850Z,10.50
2023-05-09T23:52:26.213Z,10.40
2023-05-09T23:54:54.128Z,10.40
2023-05-09T23:57:21.958Z,10.40
2023-05-09T23:59:50.160Z,10.30
